createdAt,value
2023-03-29T00:00:06.713Z,24.2200
2023-03-29T00:00:17.782Z,24.2100
2023-03-29T00:00:28.816Z,24.2100
2023-03-29T00:00:39.890Z,24.2000
2023-03-29T00:00:50.938Z,24.2000
2023-03-29T00:01:02.199Z,24.2000
2023-03-29T00:01:35.000Z,24.2100
2023-03-29T00:01:35.124Z,24.2100
2023-03-29T00:01:47.441Z,24.1900
2023-03-29T00:01:58.602Z,24.1800
2023-03-29T00:02:09.699Z,24.1800
2023-03-29T00:02:20.762Z,24.1900
2023-03-29T00:02:31.886Z,24.2000
2023-03-29T00:02:43.104Z,24.2000
2023-03-29T00:02:54.352Z,24.2100
2023-03-29T00:03:05.679Z,24.2100
2023-03-29T00:03:17.186Z,24.2100
2023-03-29T00:03:28.460Z,24.2100
2023-03-29T00:03:39.692Z,24.2200
2023-03-29T00:03:50.884Z,24.2200
2023-03-29T00:04:02.838Z,24.2200
2023-03-29T00:04:14.371Z,24.2200
2023-03-29T00:04:25.434Z,24.2200
2023-03-29T00:04:36.504Z,24.2200
2023-03-29T00:04:47.592Z,24.2200
2023-03-29T00:04:58.606Z,24.2300
2023-03-29T00:05:09.663Z,24.2400
2023-03-29T00:05:20.725Z,24.2400
2023-03-29T00:05:31.785Z,24.2500
2023-03-29T00:05:42.835Z,24.2600
2023-03-29T00:05:53.897Z,24.2600
2023-03-29T00:06:04.946Z,24.2700
2023-03-29T00:06:16.014Z,24.2700
2023-03-29T00:06:27.096Z,24.2800
2023-03-29T00:06:38.135Z,24.2800
2023-03-29T00:06:49.218Z,24.2900
2023-03-29T00:07:00.267Z,24.2900
2023-03-29T00:07:11.324Z,24.2900
2023-03-29T00:07:22.370Z,24.2800
2023-03-29T00:07:33.488Z,24.2800
2023-03-29T00:07:44.520Z,24.2800
2023-03-29T00:07:55.566Z,24.2800
2023-03-29T00:08:06.619Z,24.2800
2023-03-29T00:08:17.667Z,24.2700
2023-03-29T00:08:28.733Z,24.2700
2023-03-29T00:08:39.776Z,24.2700
2023-03-29T00:08:50.835Z,24.2800
2023-03-29T00:09:02.015Z,24.2800
2023-03-29T00:09:13.059Z,24.2900
2023-03-29T00:09:24.123Z,24.2900
2023-03-29T00:09:35.179Z,24.3000
2023-03-29T00:09:46.232Z,24.3000
2023-03-29T00:09:57.295Z,24.3000
2023-03-29T00:10:08.345Z,24.3100
2023-03-29T00:10:19.417Z,24.3200
2023-03-29T00:10:30.468Z,24.3200
2023-03-29T00:10:41.529Z,24.3200
2023-03-29T00:10:52.565Z,24.3200
2023-03-29T00:11:04.168Z,24.3100
2023-03-29T00:11:15.765Z,24.3200
2023-03-29T00:11:26.817Z,24.3100
2023-03-29T00:11:37.887Z,24.3100
2023-03-29T00:11:48.955Z,24.3100
2023-03-29T00:12:00.012Z,24.3100
2023-03-29T00:12:11.085Z,24.3100
2023-03-29T00:12:22.145Z,24.3100
2023-03-29T00:12:33.176Z,24.3100
2023-03-29T00:12:44.231Z,24.3100
2023-03-29T00:12:55.265Z,24.3100
2023-03-29T00:13:06.297Z,24.3100
2023-03-29T00:13:17.340Z,24.3000
2023-03-29T00:13:28.404Z,24.3000
2023-03-29T00:13:39.470Z,24.2900
2023-03-29T00:13:50.526Z,24.2800
2023-03-29T00:14:01.588Z,24.2800
2023-03-29T00:14:12.666Z,24.2800
2023-03-29T00:14:23.712Z,24.2800
2023-03-29T00:14:34.771Z,24.2800
2023-03-29T00:14:45.853Z,24.2800
2023-03-29T00:14:56.910Z,24.2900
2023-03-29T00:15:07.926Z,24.2800
2023-03-29T00:15:18.980Z,24.2900
2023-03-29T00:15:30.047Z,24.2900
2023-03-29T00:15:41.094Z,24.2900
2023-03-29T00:15:52.157Z,24.2900
2023-03-29T00:16:10.181Z,24.2800
2023-03-29T00:16:28.229Z,24.2800
2023-03-29T00:16:39.337Z,24.2400
2023-03-29T00:16:57.410Z,24.2200
2023-03-29T00:17:08.549Z,24.2300
2023-03-29T00:17:19.582Z,24.2200
2023-03-29T00:17:30.648Z,24.2300
2023-03-29T00:17:41.704Z,24.2300
2023-03-29T00:17:52.765Z,24.2400
2023-03-29T00:18:03.869Z,24.2400
2023-03-29T00:18:14.898Z,24.2500
2023-03-29T00:18:25.971Z,24.2500
2023-03-29T00:18:37.026Z,24.2500
2023-03-29T00:18:48.095Z,24.2500
2023-03-29T00:18:59.158Z,24.2500
2023-03-29T00:19:10.197Z,24.2400
2023-03-29T00:19:21.264Z,24.2400
2023-03-29T00:19:32.327Z,24.2400
2023-03-29T00:19:43.410Z,24.2300
2023-03-29T00:19:54.483Z,24.2300
2023-03-29T00:20:05.534Z,24.2300
2023-03-29T00:20:16.611Z,24.2400
2023-03-29T00:20:27.621Z,24.2300
2023-03-29T00:20:38.683Z,24.2300
2023-03-29T00:20:49.747Z,24.2300
2023-03-29T00:21:01.086Z,24.2300
2023-03-29T00:21:12.452Z,24.2300
2023-03-29T00:21:23.509Z,24.2200
2023-03-29T00:21:34.566Z,24.2200
2023-03-29T00:21:45.647Z,24.2200
2023-03-29T00:21:56.738Z,24.2200
2023-03-29T00:22:07.778Z,24.2100
2023-03-29T00:22:18.851Z,24.2100
2023-03-29T00:22:29.875Z,24.2100
2023-03-29T00:22:40.940Z,24.2200
2023-03-29T00:22:52.009Z,24.2200
2023-03-29T00:23:03.049Z,24.2200
2023-03-29T00:23:14.120Z,24.2200
2023-03-29T00:23:25.181Z,24.2300
2023-03-29T00:23:36.237Z,24.2400
2023-03-29T00:23:47.298Z,24.2400
2023-03-29T00:23:58.365Z,24.2400
2023-03-29T00:24:09.388Z,24.2400
2023-03-29T00:24:20.457Z,24.2400
2023-03-29T00:24:31.507Z,24.2400
2023-03-29T00:24:42.572Z,24.2400
2023-03-29T00:24:53.647Z,24.2400
2023-03-29T00:25:04.703Z,24.2400
2023-03-29T00:25:15.781Z,24.2400
2023-03-29T00:25:26.825Z,24.2400
2023-03-29T00:25:37.891Z,24.2500
2023-03-29T00:25:48.941Z,24.2500
2023-03-29T00:26:00.030Z,24.2600
2023-03-29T00:26:11.059Z,24.2600
2023-03-29T00:26:22.138Z,24.2600
2023-03-29T00:26:33.136Z,24.2500
2023-03-29T00:26:44.215Z,24.2500
2023-03-29T00:26:55.297Z,24.2600
2023-03-29T00:27:06.350Z,24.2600
2023-03-29T00:27:17.420Z,24.2500
2023-03-29T00:27:28.465Z,24.2500
2023-03-29T00:27:39.529Z,24.2500
2023-03-29T00:27:50.584Z,24.2400
2023-03-29T00:28:01.636Z,24.2400
2023-03-29T00:28:12.698Z,24.2400
2023-03-29T00:28:23.759Z,24.2400
2023-03-29T00:28:34.820Z,24.2400
2023-03-29T00:28:45.842Z,24.2400
2023-03-29T00:28:56.914Z,24.2400
2023-03-29T00:29:07.973Z,24.2500
2023-03-29T00:29:19.002Z,24.2600
2023-03-29T00:29:30.051Z,24.2700
2023-03-29T00:29:41.140Z,24.2700
2023-03-29T00:29:52.154Z,24.2800
2023-03-29T00:30:03.243Z,24.2800
2023-03-29T00:30:14.279Z,24.2800
2023-03-29T00:30:25.364Z,24.2900
2023-03-29T00:30:36.425Z,24.2900
2023-03-29T00:30:47.470Z,24.2800
2023-03-29T00:30:58.586Z,24.2900
2023-03-29T00:31:09.668Z,24.2900
2023-03-29T00:31:20.757Z,24.2900
2023-03-29T00:31:31.851Z,24.2900
2023-03-29T00:31:42.950Z,24.2900
2023-03-29T00:31:54.129Z,24.2800
2023-03-29T00:32:05.217Z,24.2700
2023-03-29T00:32:16.274Z,24.2700
2023-03-29T00:32:27.385Z,24.2600
2023-03-29T00:32:38.483Z,24.2600
2023-03-29T00:32:49.582Z,24.2600
2023-03-29T00:33:00.691Z,24.2600
2023-03-29T00:33:11.770Z,24.2600
2023-03-29T00:33:22.816Z,24.2500
2023-03-29T00:33:33.905Z,24.2500
2023-03-29T00:33:44.928Z,24.2500
2023-03-29T00:33:55.986Z,24.2500
2023-03-29T00:34:07.028Z,24.2600
2023-03-29T00:34:18.075Z,24.2600
2023-03-29T00:34:29.136Z,24.2700
2023-03-29T00:34:40.176Z,24.2700
2023-03-29T00:34:51.238Z,24.2700
2023-03-29T00:35:02.310Z,24.2800
2023-03-29T00:35:13.359Z,24.2800
2023-03-29T00:35:24.453Z,24.2800
2023-03-29T00:35:35.525Z,24.2800
2023-03-29T00:35:46.637Z,24.2800
2023-03-29T00:35:57.714Z,24.2800
2023-03-29T00:36:08.870Z,24.2800
2023-03-29T00:36:19.922Z,24.2800
2023-03-29T00:36:30.989Z,24.2700
2023-03-29T00:36:42.065Z,24.2600
2023-03-29T00:36:53.180Z,24.2500
2023-03-29T00:37:04.237Z,24.2500
2023-03-29T00:37:15.314Z,24.2400
2023-03-29T00:37:26.379Z,24.2400
2023-03-29T00:37:37.437Z,24.2400
2023-03-29T00:37:48.488Z,24.2500
2023-03-29T00:37:59.575Z,24.2500
2023-03-29T00:38:10.629Z,24.2500
2023-03-29T00:38:21.671Z,24.2500
2023-03-29T00:38:32.726Z,24.2500
2023-03-29T00:38:43.791Z,24.2500
2023-03-29T00:38:54.848Z,24.2400
2023-03-29T00:39:05.912Z,24.2400
2023-03-29T00:39:16.959Z,24.2400
2023-03-29T00:39:28.138Z,24.2400
2023-03-29T00:39:39.189Z,24.2400
2023-03-29T00:39:50.218Z,24.2400
2023-03-29T00:40:01.281Z,24.2400
2023-03-29T00:40:12.342Z,24.2400
2023-03-29T00:40:23.411Z,24.2400
2023-03-29T00:40:34.450Z,24.2400
2023-03-29T00:40:45.528Z,24.2500
2023-03-29T00:40:56.581Z,24.2500
2023-03-29T00:41:07.638Z,24.2500
2023-03-29T00:41:18.705Z,24.2600
2023-03-29T00:41:29.730Z,24.2500
2023-03-29T00:41:40.790Z,24.2600
2023-03-29T00:41:51.872Z,24.2600
2023-03-29T00:42:02.935Z,24.2700
2023-03-29T00:42:14.027Z,24.2800
2023-03-29T00:42:25.077Z,24.2800
2023-03-29T00:42:36.138Z,24.2800
2023-03-29T00:42:47.182Z,24.2800
2023-03-29T00:42:58.253Z,24.2700
2023-03-29T00:43:09.288Z,24.2600
2023-03-29T00:43:20.327Z,24.2500
2023-03-29T00:43:31.394Z,24.2500
2023-03-29T00:43:42.543Z,24.2400
2023-03-29T00:43:53.581Z,24.2400
2023-03-29T00:44:04.641Z,24.2300
2023-03-29T00:44:15.700Z,24.2300
2023-03-29T00:44:26.766Z,24.2300
2023-03-29T00:44:37.852Z,24.2300
2023-03-29T00:44:48.916Z,24.2400
2023-03-29T00:44:59.986Z,24.2400
2023-03-29T00:45:11.037Z,24.2500
2023-03-29T00:45:22.087Z,24.2500
2023-03-29T00:45:33.150Z,24.2500
2023-03-29T00:45:44.207Z,24.2500
2023-03-29T00:45:55.353Z,24.2500
2023-03-29T00:46:06.427Z,24.2500
2023-03-29T00:46:17.453Z,24.2500
2023-03-29T00:46:28.526Z,24.2400
2023-03-29T00:46:39.705Z,24.2400
2023-03-29T00:46:50.770Z,24.2400
2023-03-29T00:47:01.804Z,24.2300
2023-03-29T00:47:12.898Z,24.2300
2023-03-29T00:47:23.922Z,24.2300
2023-03-29T00:47:35.050Z,24.2300
2023-03-29T00:47:46.113Z,24.2300
2023-03-29T00:47:57.505Z,24.2300
2023-03-29T00:48:08.830Z,24.2300
2023-03-29T00:48:19.917Z,24.2300
2023-03-29T00:48:30.977Z,24.2300
2023-03-29T00:48:42.014Z,24.2300
2023-03-29T00:48:53.055Z,24.2300
2023-03-29T00:49:04.094Z,24.2300
2023-03-29T00:49:15.172Z,24.2400
2023-03-29T00:49:26.228Z,24.2500
2023-03-29T00:49:37.288Z,24.2600
2023-03-29T00:49:48.377Z,24.2600
2023-03-29T00:49:59.451Z,24.2600
2023-03-29T00:50:10.549Z,24.2500
2023-03-29T00:50:21.584Z,24.2500
2023-03-29T00:50:32.639Z,24.2500
2023-03-29T00:50:43.699Z,24.2400
2023-03-29T00:50:54.773Z,24.2400
2023-03-29T00:51:08.174Z,24.2500
2023-03-29T00:51:20.501Z,24.2500
2023-03-29T00:51:31.569Z,24.2400
2023-03-29T00:51:42.626Z,24.2400
2023-03-29T00:51:53.698Z,24.2400
2023-03-29T00:52:04.747Z,24.2500
2023-03-29T00:52:15.859Z,24.2400
2023-03-29T00:52:26.914Z,24.2400
2023-03-29T00:52:37.979Z,24.2400
2023-03-29T00:52:49.035Z,24.2400
2023-03-29T00:53:00.105Z,24.2400
2023-03-29T00:53:11.130Z,24.2400
2023-03-29T00:53:22.194Z,24.2400
2023-03-29T00:53:33.234Z,24.2400
2023-03-29T00:53:44.294Z,24.2400
2023-03-29T00:53:55.366Z,24.2400
2023-03-29T00:54:06.417Z,24.2500
2023-03-29T00:54:17.534Z,24.2600
2023-03-29T00:54:28.566Z,24.2700
2023-03-29T00:54:39.617Z,24.2700
2023-03-29T00:54:50.672Z,24.2700
2023-03-29T00:55:01.718Z,24.2800
2023-03-29T00:55:12.787Z,24.2800
2023-03-29T00:55:23.862Z,24.2800
2023-03-29T00:55:34.889Z,24.2800
2023-03-29T00:55:45.939Z,24.2800
2023-03-29T00:55:57.000Z,24.2700
2023-03-29T00:56:08.048Z,24.2700
2023-03-29T00:56:19.082Z,24.2600
2023-03-29T00:56:30.173Z,24.2600
2023-03-29T00:56:41.277Z,24.2600
2023-03-29T00:56:52.382Z,24.2600
2023-03-29T00:57:03.518Z,24.2500
2023-03-29T00:57:14.604Z,24.2500
2023-03-29T00:57:27.659Z,24.2500
2023-03-29T00:57:39.011Z,24.2500
2023-03-29T00:57:50.048Z,24.2500
2023-03-29T00:58:01.078Z,24.2500
2023-03-29T00:58:12.143Z,24.2600
2023-03-29T00:58:23.198Z,24.2700
2023-03-29T00:58:34.248Z,24.2700
2023-03-29T00:58:45.318Z,24.2700
2023-03-29T00:58:56.400Z,24.2700
2023-03-29T00:59:07.470Z,24.2600
2023-03-29T00:59:18.525Z,24.2600
2023-03-29T00:59:29.549Z,24.2600
2023-03-29T00:59:40.598Z,24.2600
2023-03-29T00:59:51.665Z,24.2500
2023-03-29T01:00:02.721Z,24.2500
2023-03-29T01:00:13.799Z,24.2400
2023-03-29T01:00:24.847Z,24.2500
2023-03-29T01:00:35.894Z,24.2500
2023-03-29T01:00:46.968Z,24.2500
2023-03-29T01:00:58.058Z,24.2600
2023-03-29T01:01:09.093Z,24.2600
2023-03-29T01:01:20.241Z,24.2600
2023-03-29T01:01:31.368Z,24.2600
2023-03-29T01:01:42.559Z,24.2600
2023-03-29T01:01:53.748Z,24.2700
2023-03-29T01:02:04.902Z,24.2700
2023-03-29T01:02:16.011Z,24.2700
2023-03-29T01:02:27.070Z,24.2700
2023-03-29T01:02:38.321Z,24.2600
2023-03-29T01:02:49.536Z,24.2600
2023-03-29T01:03:00.688Z,24.2600
2023-03-29T01:03:11.993Z,24.2600
2023-03-29T01:03:23.164Z,24.2600
2023-03-29T01:03:34.344Z,24.2600
2023-03-29T01:03:45.511Z,24.2700
2023-03-29T01:03:56.710Z,24.2700
2023-03-29T01:04:07.828Z,24.2700
2023-03-29T01:04:18.930Z,24.2700
2023-03-29T01:04:29.958Z,24.2700
2023-03-29T01:04:41.020Z,24.2700
2023-03-29T01:04:52.060Z,24.2600
2023-03-29T01:05:03.118Z,24.2600
2023-03-29T01:05:14.219Z,24.2600
2023-03-29T01:05:25.256Z,24.2600
2023-03-29T01:05:36.320Z,24.2600
2023-03-29T01:05:47.360Z,24.2600
2023-03-29T01:05:58.436Z,24.2700
2023-03-29T01:06:09.498Z,24.2700
2023-03-29T01:06:20.570Z,24.2700
2023-03-29T01:06:31.655Z,24.2700
2023-03-29T01:06:42.724Z,24.2700
2023-03-29T01:06:53.834Z,24.2800
2023-03-29T01:07:05.028Z,24.2800
2023-03-29T01:07:16.152Z,24.2800
2023-03-29T01:07:27.182Z,24.2800
2023-03-29T01:07:38.236Z,24.2700
2023-03-29T01:07:49.317Z,24.2700
2023-03-29T01:08:00.349Z,24.2700
2023-03-29T01:08:11.394Z,24.2700
2023-03-29T01:08:22.461Z,24.2700
2023-03-29T01:08:33.511Z,24.2700
2023-03-29T01:08:44.565Z,24.2700
2023-03-29T01:08:55.627Z,24.2700
2023-03-29T01:09:06.641Z,24.2800
2023-03-29T01:09:17.713Z,24.2800
2023-03-29T01:09:28.747Z,24.2800
2023-03-29T01:09:39.806Z,24.2800
2023-03-29T01:09:50.864Z,24.2900
2023-03-29T01:10:01.913Z,24.2900
2023-03-29T01:10:12.987Z,24.2900
2023-03-29T01:10:24.038Z,24.2800
2023-03-29T01:10:35.125Z,24.2800
2023-03-29T01:10:46.171Z,24.2800
2023-03-29T01:10:57.261Z,24.2700
2023-03-29T01:11:08.288Z,24.2600
2023-03-29T01:11:19.322Z,24.2700
2023-03-29T01:11:30.381Z,24.2700
2023-03-29T01:11:41.458Z,24.2700
2023-03-29T01:11:52.496Z,24.2600
2023-03-29T01:12:03.558Z,24.2600
2023-03-29T01:12:14.664Z,24.2600
2023-03-29T01:12:25.720Z,24.2500
2023-03-29T01:12:36.768Z,24.2600
2023-03-29T01:12:47.833Z,24.2600
2023-03-29T01:12:58.886Z,24.2600
2023-03-29T01:13:09.921Z,24.2600
2023-03-29T01:13:20.998Z,24.2600
2023-03-29T01:13:32.052Z,24.2600
2023-03-29T01:13:43.093Z,24.2600
2023-03-29T01:13:54.139Z,24.2700
2023-03-29T01:14:05.171Z,24.2700
2023-03-29T01:14:16.229Z,24.2700
2023-03-29T01:14:27.288Z,24.2800
2023-03-29T01:14:38.348Z,24.2800
2023-03-29T01:14:49.407Z,24.2800
2023-03-29T01:15:00.462Z,24.2800
2023-03-29T01:15:11.526Z,24.2800
2023-03-29T01:15:22.592Z,24.2800
2023-03-29T01:15:33.632Z,24.2800
2023-03-29T01:15:44.701Z,24.2900
2023-03-29T01:15:55.776Z,24.2900
2023-03-29T01:16:06.837Z,24.3000
2023-03-29T01:16:17.921Z,24.3000
2023-03-29T01:16:29.041Z,24.3000
2023-03-29T01:16:40.115Z,24.3100
2023-03-29T01:16:51.217Z,24.3000
2023-03-29T01:17:02.323Z,24.3000
2023-03-29T01:17:13.369Z,24.3000
2023-03-29T01:17:31.531Z,24.3000
2023-03-29T01:17:49.886Z,24.3000
2023-03-29T01:18:00.948Z,24.2700
2023-03-29T01:18:19.519Z,24.2600
2023-03-29T01:18:30.593Z,24.2700
2023-03-29T01:18:49.159Z,24.2400
2023-03-29T01:19:00.225Z,24.2400
2023-03-29T01:19:11.273Z,24.2100
2023-03-29T01:19:22.315Z,24.2200
2023-03-29T01:19:33.373Z,24.2300
2023-03-29T01:19:44.419Z,24.2300
2023-03-29T01:19:55.502Z,24.2300
2023-03-29T01:20:06.577Z,24.2300
2023-03-29T01:20:17.635Z,24.2300
2023-03-29T01:20:28.654Z,24.2300
2023-03-29T01:20:39.702Z,24.2400
2023-03-29T01:20:50.771Z,24.2500
2023-03-29T01:21:01.978Z,24.2600
2023-03-29T01:21:13.087Z,24.2600
2023-03-29T01:21:24.150Z,24.2600
2023-03-29T01:21:35.203Z,24.2600
2023-03-29T01:21:46.251Z,24.2700
2023-03-29T01:21:57.302Z,24.2700
2023-03-29T01:22:08.325Z,24.2800
2023-03-29T01:22:19.375Z,24.2700
2023-03-29T01:22:30.433Z,24.2700
2023-03-29T01:22:41.533Z,24.2700
2023-03-29T01:22:52.590Z,24.2800
2023-03-29T01:23:03.632Z,24.2900
2023-03-29T01:23:14.680Z,24.3000
2023-03-29T01:23:25.728Z,24.3000
2023-03-29T01:23:36.772Z,24.3000
2023-03-29T01:23:47.820Z,24.3000
2023-03-29T01:23:58.871Z,24.3100
2023-03-29T01:24:09.935Z,24.3100
2023-03-29T01:24:20.978Z,24.3100
2023-03-29T01:24:32.063Z,24.3000
2023-03-29T01:24:43.101Z,24.3000
2023-03-29T01:24:54.165Z,24.2900
2023-03-29T01:25:05.221Z,24.2800
2023-03-29T01:25:16.278Z,24.2800
2023-03-29T01:25:27.332Z,24.2700
2023-03-29T01:25:38.368Z,24.2700
2023-03-29T01:25:49.413Z,24.2700
2023-03-29T01:26:00.481Z,24.2800
2023-03-29T01:26:11.524Z,24.2800
2023-03-29T01:26:22.601Z,24.2900
2023-03-29T01:26:33.692Z,24.2800
2023-03-29T01:26:44.755Z,24.2800
2023-03-29T01:26:55.837Z,24.2800
2023-03-29T01:27:06.900Z,24.2700
2023-03-29T01:27:17.999Z,24.2700
2023-03-29T01:27:29.042Z,24.2700
2023-03-29T01:27:40.114Z,24.2700
2023-03-29T01:27:51.201Z,24.2700
2023-03-29T01:28:02.250Z,24.2700
2023-03-29T01:28:13.305Z,24.2700
2023-03-29T01:28:24.358Z,24.2600
2023-03-29T01:28:35.401Z,24.2600
2023-03-29T01:28:46.458Z,24.2600
2023-03-29T01:28:57.517Z,24.2600
2023-03-29T01:29:08.572Z,24.2600
2023-03-29T01:29:19.625Z,24.2600
2023-03-29T01:29:30.685Z,24.2500
2023-03-29T01:29:41.726Z,24.2500
2023-03-29T01:29:52.774Z,24.2500
2023-03-29T01:30:03.840Z,24.2500
2023-03-29T01:30:14.898Z,24.2500
2023-03-29T01:30:25.937Z,24.2500
2023-03-29T01:30:37.093Z,24.2500
2023-03-29T01:30:48.141Z,24.2500
2023-03-29T01:30:59.246Z,24.2500
2023-03-29T01:31:10.443Z,24.2500
2023-03-29T01:31:21.537Z,24.2500
2023-03-29T01:31:32.674Z,24.2600
2023-03-29T01:31:43.859Z,24.2700
2023-03-29T01:31:55.000Z,24.2700
2023-03-29T01:32:06.073Z,24.2800
2023-03-29T01:32:17.107Z,24.2800
2023-03-29T01:32:28.252Z,24.2900
2023-03-29T01:32:39.309Z,24.3000
2023-03-29T01:32:50.397Z,24.3000
2023-03-29T01:33:01.668Z,24.3000
2023-03-29T01:33:12.740Z,24.3100
2023-03-29T01:33:23.792Z,24.3100
2023-03-29T01:33:34.862Z,24.3100
2023-03-29T01:33:45.908Z,24.3100
2023-03-29T01:33:56.957Z,24.3000
2023-03-29T01:34:08.014Z,24.3000
2023-03-29T01:34:19.044Z,24.2900
2023-03-29T01:34:30.104Z,24.2700
2023-03-29T01:34:41.163Z,24.2700
2023-03-29T01:34:52.209Z,24.2600
2023-03-29T01:35:03.243Z,24.2600
2023-03-29T01:35:14.325Z,24.2600
2023-03-29T01:35:25.386Z,24.2500
2023-03-29T01:35:36.430Z,24.2500
2023-03-29T01:35:47.502Z,24.2500
2023-03-29T01:35:58.638Z,24.2500
2023-03-29T01:36:09.784Z,24.2400
2023-03-29T01:36:20.892Z,24.2400
2023-03-29T01:36:31.955Z,24.2400
2023-03-29T01:36:43.062Z,24.2500
2023-03-29T01:36:54.093Z,24.2500
2023-03-29T01:37:05.164Z,24.2500
2023-03-29T01:37:16.213Z,24.2500
2023-03-29T01:37:27.302Z,24.2500
2023-03-29T01:37:38.366Z,24.2500
2023-03-29T01:37:49.406Z,24.2500
2023-03-29T01:38:00.458Z,24.2500
2023-03-29T01:38:11.507Z,24.2500
2023-03-29T01:38:22.575Z,24.2600
2023-03-29T01:38:33.610Z,24.2500
2023-03-29T01:38:44.674Z,24.2500
2023-03-29T01:38:55.720Z,24.2500
2023-03-29T01:39:06.782Z,24.2600
2023-03-29T01:39:17.852Z,24.2600
2023-03-29T01:39:28.919Z,24.2600
2023-03-29T01:39:39.974Z,24.2600
2023-03-29T01:39:51.045Z,24.2600
2023-03-29T01:40:02.100Z,24.2600
2023-03-29T01:40:13.168Z,24.2600
2023-03-29T01:40:24.242Z,24.2600
2023-03-29T01:40:35.282Z,24.2600
2023-03-29T01:40:46.344Z,24.2500
2023-03-29T01:40:57.370Z,24.2400
2023-03-29T01:41:08.411Z,24.2400
2023-03-29T01:41:19.464Z,24.2500
2023-03-29T01:41:30.533Z,24.2500
2023-03-29T01:41:41.571Z,24.2600
2023-03-29T01:41:52.644Z,24.2600
2023-03-29T01:42:03.689Z,24.2600
2023-03-29T01:42:14.725Z,24.2500
2023-03-29T01:42:25.804Z,24.2500
2023-03-29T01:42:36.903Z,24.2600
2023-03-29T01:42:47.950Z,24.2600
2023-03-29T01:42:59.016Z,24.2600
2023-03-29T01:43:10.064Z,24.2600
2023-03-29T01:43:21.092Z,24.2600
2023-03-29T01:43:32.155Z,24.2600
2023-03-29T01:43:43.184Z,24.2600
2023-03-29T01:43:54.248Z,24.2600
2023-03-29T01:44:05.314Z,24.2500
2023-03-29T01:44:16.363Z,24.2500
2023-03-29T01:44:27.392Z,24.2500
2023-03-29T01:44:38.445Z,24.2400
2023-03-29T01:44:49.500Z,24.2400
2023-03-29T01:45:00.566Z,24.2400
2023-03-29T01:45:11.637Z,24.2400
2023-03-29T01:45:22.703Z,24.2400
2023-03-29T01:45:33.745Z,24.2300
2023-03-29T01:45:44.837Z,24.2300
2023-03-29T01:45:55.912Z,24.2300
2023-03-29T01:46:07.040Z,24.2300
2023-03-29T01:46:18.114Z,24.2200
2023-03-29T01:46:29.267Z,24.2300
2023-03-29T01:46:40.323Z,24.2300
2023-03-29T01:46:51.346Z,24.2300
2023-03-29T01:47:02.407Z,24.2400
2023-03-29T01:47:13.463Z,24.2400
2023-03-29T01:47:24.560Z,24.2400
2023-03-29T01:47:35.683Z,24.2400
2023-03-29T01:47:46.756Z,24.2400
2023-03-29T01:47:57.845Z,24.2400
2023-03-29T01:48:08.892Z,24.2400
2023-03-29T01:48:19.967Z,24.2300
2023-03-29T01:48:31.022Z,24.2300
2023-03-29T01:48:42.094Z,24.2300
2023-03-29T01:48:53.141Z,24.2300
2023-03-29T01:49:04.212Z,24.2400
2023-03-29T01:49:15.245Z,24.2500
2023-03-29T01:49:26.338Z,24.2500
2023-03-29T01:49:37.407Z,24.2600
2023-03-29T01:49:48.459Z,24.2600
2023-03-29T01:49:59.555Z,24.2600
2023-03-29T01:50:10.592Z,24.2600
2023-03-29T01:50:21.630Z,24.2700
2023-03-29T01:50:32.721Z,24.2700
2023-03-29T01:50:43.752Z,24.2700
2023-03-29T01:50:54.804Z,24.2800
2023-03-29T01:51:05.851Z,24.2900
2023-03-29T01:51:16.897Z,24.2900
2023-03-29T01:51:27.950Z,24.2900
2023-03-29T01:51:39.014Z,24.2900
2023-03-29T01:51:50.069Z,24.2900
2023-03-29T01:52:01.086Z,24.3000
2023-03-29T01:52:12.141Z,24.3000
2023-03-29T01:52:23.181Z,24.3100
2023-03-29T01:52:34.242Z,24.3100
2023-03-29T01:52:45.317Z,24.3000
2023-03-29T01:52:56.396Z,24.2900
2023-03-29T01:53:07.430Z,24.2900
2023-03-29T01:53:18.491Z,24.2900
2023-03-29T01:53:29.561Z,24.2900
2023-03-29T01:53:40.629Z,24.3000
2023-03-29T01:53:51.684Z,24.3000
2023-03-29T01:54:02.753Z,24.3100
2023-03-29T01:54:13.809Z,24.3100
2023-03-29T01:54:24.853Z,24.3200
2023-03-29T01:54:35.930Z,24.3200
2023-03-29T01:54:46.958Z,24.3200
2023-03-29T01:54:58.009Z,24.3200
2023-03-29T01:55:09.068Z,24.3200
2023-03-29T01:55:20.090Z,24.3200
2023-03-29T01:55:31.152Z,24.3300
2023-03-29T01:55:42.204Z,24.3300
2023-03-29T01:55:53.246Z,24.3300
2023-03-29T01:56:04.311Z,24.3300
2023-03-29T01:56:15.357Z,24.3300
2023-03-29T01:56:26.412Z,24.3200
2023-03-29T01:56:37.497Z,24.3200
2023-03-29T01:56:48.563Z,24.3200
2023-03-29T01:56:59.630Z,24.3200
2023-03-29T01:57:10.807Z,24.3100
2023-03-29T01:57:21.942Z,24.3100
2023-03-29T01:57:32.958Z,24.3000
2023-03-29T01:57:44.049Z,24.3100
2023-03-29T01:57:55.092Z,24.3200
2023-03-29T01:58:06.168Z,24.3200
2023-03-29T01:58:17.231Z,24.3100
2023-03-29T01:58:28.259Z,24.3100
2023-03-29T01:58:39.311Z,24.3000
2023-03-29T01:58:50.379Z,24.2900
2023-03-29T01:59:01.433Z,24.2900
2023-03-29T01:59:12.511Z,24.2900
2023-03-29T01:59:23.542Z,24.2900
2023-03-29T01:59:34.606Z,24.2800
2023-03-29T01:59:45.661Z,24.2800
2023-03-29T01:59:56.731Z,24.2800
2023-03-29T02:00:07.777Z,24.2800
2023-03-29T02:00:18.832Z,24.2900
2023-03-29T02:00:29.892Z,24.2900
2023-03-29T02:00:40.943Z,24.3000
2023-03-29T02:00:52.009Z,24.3000
2023-03-29T02:01:03.438Z,24.3100
2023-03-29T02:01:14.713Z,24.3100
2023-03-29T02:01:25.990Z,24.3000
2023-03-29T02:01:37.210Z,24.2900
2023-03-29T02:01:48.351Z,24.2900
2023-03-29T02:01:59.524Z,24.2900
2023-03-29T02:02:10.616Z,24.2900
2023-03-29T02:02:21.688Z,24.2900
2023-03-29T02:02:32.803Z,24.3000
2023-03-29T02:02:43.980Z,24.3000
2023-03-29T02:02:55.206Z,24.2900
2023-03-29T02:03:06.472Z,24.2800
2023-03-29T02:03:17.769Z,24.2700
2023-03-29T02:03:29.145Z,24.2700
2023-03-29T02:03:40.304Z,24.2700
2023-03-29T02:03:51.342Z,24.2700
2023-03-29T02:04:02.387Z,24.2800
2023-03-29T02:04:13.525Z,24.2800
2023-03-29T02:04:24.575Z,24.2800
2023-03-29T02:04:35.639Z,24.2800
2023-03-29T02:04:46.703Z,24.2800
2023-03-29T02:04:57.751Z,24.2700
2023-03-29T02:05:08.804Z,24.2600
2023-03-29T02:05:19.857Z,24.2600
2023-03-29T02:05:30.911Z,24.2600
2023-03-29T02:05:41.997Z,24.2600
2023-03-29T02:05:53.048Z,24.2600
2023-03-29T02:06:04.096Z,24.2600
2023-03-29T02:06:15.136Z,24.2600
2023-03-29T02:06:26.198Z,24.2600
2023-03-29T02:06:37.251Z,24.2600
2023-03-29T02:06:48.307Z,24.2600
2023-03-29T02:06:59.390Z,24.2600
2023-03-29T02:07:10.442Z,24.2600
2023-03-29T02:07:21.509Z,24.2600
2023-03-29T02:07:32.549Z,24.2600
2023-03-29T02:07:43.580Z,24.2600
2023-03-29T02:07:54.670Z,24.2500
2023-03-29T02:08:05.773Z,24.2400
2023-03-29T02:08:16.793Z,24.2400
2023-03-29T02:08:27.851Z,24.2400
2023-03-29T02:08:38.867Z,24.2400
2023-03-29T02:08:49.922Z,24.2300
2023-03-29T02:09:00.985Z,24.2300
2023-03-29T02:09:12.032Z,24.2300
2023-03-29T02:09:23.091Z,24.2300
2023-03-29T02:09:34.161Z,24.2200
2023-03-29T02:09:45.236Z,24.2200
2023-03-29T02:09:56.284Z,24.2200
2023-03-29T02:10:07.330Z,24.2200
2023-03-29T02:10:18.390Z,24.2200
2023-03-29T02:10:29.445Z,24.2100
2023-03-29T02:10:40.519Z,24.2100
2023-03-29T02:10:51.587Z,24.2100
2023-03-29T02:11:02.831Z,24.2100
2023-03-29T02:11:14.038Z,24.2000
2023-03-29T02:11:25.102Z,24.2000
2023-03-29T02:11:36.151Z,24.2000
2023-03-29T02:11:47.213Z,24.2000
2023-03-29T02:11:58.286Z,24.1900
2023-03-29T02:12:09.308Z,24.1900
2023-03-29T02:12:20.349Z,24.1900
2023-03-29T02:12:31.404Z,24.1900
2023-03-29T02:12:42.447Z,24.1800
2023-03-29T02:12:53.550Z,24.1900
2023-03-29T02:13:04.602Z,24.1900
2023-03-29T02:13:15.671Z,24.1900
2023-03-29T02:13:26.730Z,24.1900
2023-03-29T02:13:37.781Z,24.2000
2023-03-29T02:13:48.829Z,24.2000
2023-03-29T02:13:59.858Z,24.2000
2023-03-29T02:14:11.020Z,24.2000
2023-03-29T02:14:22.133Z,24.2100
2023-03-29T02:14:33.165Z,24.2100
2023-03-29T02:14:44.240Z,24.2200
2023-03-29T02:14:55.281Z,24.2200
2023-03-29T02:15:06.323Z,24.2300